sensor_id;sensor_type;location;lat;lon;timestamp;temperature;humidity
23347;DHT22;36852;45.466;11.066;2023-07-31T00:01:38;27.20;99.90
23347;DHT22;36852;45.466;11.066;2023-07-31T00:04:06;27.20;99.90
23347;DHT22;36852;45.466;11.066;2023-07-31T00:06:35;27.20;99.90
23347;DHT22;36852;45.466;11.066;2023-07-31T00:09:03;27.20;99.90
23347;DHT22;36852;45.466;11.066;2023-07-31T00:11:31;27.10;99.90
23347;DHT22;36852;45.466;11.066;2023-07-31T00:13:59;27.10;99.90
23347;DHT22;36852;45.466;11.066;2023-07-31T00:16:27;27.10;99.90
23347;DHT22;36852;45.466;11.066;2023-07-31T00:18:54;27.10;99.90
23347;DHT22;36852;45.466;11.066;2023-07-31T00:21:23;27.10;99.90
23347;DHT22;36852;45.466;11.066;2023-07-31T00:23:50;27.00;99.90
23347;DHT22;36852;45.466;11.066;2023-07-31T00:26:18;27.00;99.90
23347;DHT22;36852;45.466;11.066;2023-07-31T00:28:46;27.00;99.90
23347;DHT22;36852;45.466;11.066;2023-07-31T00:31:14;27.00;99.90
23347;DHT22;36852;45.466;11.066;2023-07-31T00:33:41;26.90;99.90
23347;DHT22;36852;45.466;11.066;2023-07-31T00:36:09;27.00;99.90
23347;DHT22;36852;45.466;11.066;2023-07-31T00:38:37;26.90;99.90
23347;DHT22;36852;45.466;11.066;2023-07-31T00:41:05;27.00;99.90
23347;DHT22;36852;45.466;11.066;2023-07-31T00:43:34;26.90;99.90
23347;DHT22;36852;45.466;11.066;2023-07-31T00:46:02;26.90;99.90
23347;DHT22;36852;45.466;11.066;2023-07-31T00:48:33;26.90;99.90
23347;DHT22;36852;45.466;11.066;2023-07-31T00:51:03;26.90;99.90
23347;DHT22;36852;45.466;11.066;2023-07-31T00:53:32;26.80;99.90
23347;DHT22;36852;45.466;11.066;2023-07-31T00:56:03;26.90;99.90
23347;DHT22;36852;45.466;11.066;2023-07-31T00:58:33;26.90;99.90
23347;DHT22;36852;45.466;11.066;2023-07-31T01:01:00;26.80;99.90
23347;DHT22;36852;45.466;11.066;2023-07-31T01:03:28;26.80;99.90
23347;DHT22;36852;45.466;11.066;2023-07-31T01:09:04;26.80;99.90
23347;DHT22;36852;45.466;11.066;2023-07-31T01:11:35;26.80;99.90
23347;DHT22;36852;45.466;11.066;2023-07-31T01:14:03;26.80;99.90
23347;DHT22;36852;45.466;11.066;2023-07-31T01:16:32;26.80;99.90
23347;DHT22;36852;45.466;11.066;2023-07-31T01:18:59;26.80;99.90
23347;DHT22;36852;45.466;11.066;2023-07-31T01:26:49;26.70;99.90
23347;DHT22;36852;45.466;11.066;2023-07-31T01:29:24;26.70;99.90
23347;DHT22;36852;45.466;11.066;2023-07-31T01:31:55;26.70;99.90
23347;DHT22;36852;45.466;11.066;2023-07-31T01:34:30;26.70;99.90
23347;DHT22;36852;45.466;11.066;2023-07-31T01:36:58;26.70;99.90
23347;DHT22;36852;45.466;11.066;2023-07-31T01:39:26;26.70;99.90
23347;DHT22;36852;45.466;11.066;2023-07-31T01:41:57;26.70;99.90
23347;DHT22;36852;45.466;11.066;2023-07-31T01:44:25;26.60;99.90
23347;DHT22;36852;45.466;11.066;2023-07-31T01:46:53;26.70;99.90
23347;DHT22;36852;45.466;11.066;2023-07-31T01:49:23;26.60;99.90
23347;DHT22;36852;45.466;11.066;2023-07-31T01:51:53;26.70;99.90
23347;DHT22;36852;45.466;11.066;2023-07-31T01:54:22;26.70;99.90
23347;DHT22;36852;45.466;11.066;2023-07-31T01:56:49;26.70;99.90
23347;DHT22;36852;45.466;11.066;2023-07-31T01:59:17;26.70;99.90
23347;DHT22;36852;45.466;11.066;2023-07-31T02:01:44;26.70;99.90
23347;DHT22;36852;45.466;11.066;2023-07-31T02:04:12;26.70;99.90
23347;DHT22;36852;45.466;11.066;2023-07-31T02:06:40;26.70;99.90
23347;DHT22;36852;45.466;11.066;2023-07-31T02:09:08;26.70;99.90
23347;DHT22;36852;45.466;11.066;2023-07-31T02:11:36;26.70;99.90
23347;DHT22;36852;45.466;11.066;2023-07-31T02:14:04;26.60;99.90
23347;DHT22;36852;45.466;11.066;2023-07-31T02:16:32;26.60;99.90
23347;DHT22;36852;45.466;11.066;2023-07-31T02:19:05;26.60;99.90
23347;DHT22;36852;45.466;11.066;2023-07-31T02:21:33;26.50;99.90
23347;DHT22;36852;45.466;11.066;2023-07-31T02:24:04;26.50;99.90
23347;DHT22;36852;45.466;11.066;2023-07-31T02:26:33;26.50;99.90
23347;DHT22;36852;45.466;11.066;2023-07-31T02:29:00;26.50;99.90
23347;DHT22;36852;45.466;11.066;2023-07-31T02:31:28;26.50;99.90
23347;DHT22;36852;45.466;11.066;2023-07-31T02:33:56;26.50;99.90
23347;DHT22;36852;45.466;11.066;2023-07-31T02:36:26;26.50;99.90
23347;DHT22;36852;45.466;11.066;2023-07-31T02:38:55;26.50;99.90
23347;DHT22;36852;45.466;11.066;2023-07-31T02:41:23;26.50;99.90
23347;DHT22;36852;45.466;11.066;2023-07-31T02:43:50;26.50;99.90
23347;DHT22;36852;45.466;11.066;2023-07-31T02:46:20;26.50;99.90
23347;DHT22;36852;45.466;11.066;2023-07-31T02:48:50;26.40;99.90
23347;DHT22;36852;45.466;11.066;2023-07-31T02:51:19;26.40;99.90
23347;DHT22;36852;45.466;11.066;2023-07-31T02:53:50;26.40;99.90
23347;DHT22;36852;45.466;11.066;2023-07-31T02:56:17;26.40;99.90
23347;DHT22;36852;45.466;11.066;2023-07-31T02:58:45;26.40;99.90
23347;DHT22;36852;45.466;11.066;2023-07-31T03:01:13;26.40;99.90
23347;DHT22;36852;45.466;11.066;2023-07-31T03:03:42;26.40;99.90
23347;DHT22;36852;45.466;11.066;2023-07-31T03:06:11;26.30;99.90
23347;DHT22;36852;45.466;11.066;2023-07-31T03:08:39;26.30;99.90
23347;DHT22;36852;45.466;11.066;2023-07-31T03:11:07;26.30;99.90
23347;DHT22;36852;45.466;11.066;2023-07-31T03:13:35;26.30;99.90
23347;DHT22;36852;45.466;11.066;2023-07-31T03:16:03;26.30;99.90
23347;DHT22;36852;45.466;11.066;2023-07-31T03:18:34;26.20;99.90
23347;DHT22;36852;45.466;11.066;2023-07-31T03:21:02;26.20;99.90
23347;DHT22;36852;45.466;11.066;2023-07-31T03:23:29;26.20;99.90
23347;DHT22;36852;45.466;11.066;2023-07-31T03:25:59;26.10;99.90
23347;DHT22;36852;45.466;11.066;2023-07-31T03:28:27;26.10;99.90
23347;DHT22;36852;45.466;11.066;2023-07-31T03:30:55;26.20;99.90
23347;DHT22;36852;45.466;11.066;2023-07-31T03:33:24;26.20;99.90
23347;DHT22;36852;45.466;11.066;2023-07-31T03:35:51;26.20;99.90
23347;DHT22;36852;45.466;11.066;2023-07-31T03:38:23;26.10;99.90
23347;DHT22;36852;45.466;11.066;2023-07-31T03:40:53;26.10;99.90
23347;DHT22;36852;45.466;11.066;2023-07-31T03:43:21;26.10;99.90
23347;DHT22;36852;45.466;11.066;2023-07-31T03:45:48;26.10;99.90
23347;DHT22;36852;45.466;11.066;2023-07-31T03:48:20;26.10;99.90
23347;DHT22;36852;45.466;11.066;2023-07-31T03:50:47;26.10;99.90
23347;DHT22;36852;45.466;11.066;2023-07-31T03:53:16;26.00;99.90
23347;DHT22;36852;45.466;11.066;2023-07-31T03:55:48;26.10;99.90
23347;DHT22;36852;45.466;11.066;2023-07-31T03:58:15;26.10;99.90
23347;DHT22;36852;45.466;11.066;2023-07-31T04:00:45;26.10;99.90
23347;DHT22;36852;45.466;11.066;2023-07-31T04:03:13;26.20;99.90
23347;DHT22;36852;45.466;11.066;2023-07-31T04:05:42;26.20;99.90
23347;DHT22;36852;45.466;11.066;2023-07-31T04:08:10;26.20;99.90
23347;DHT22;36852;45.466;11.066;2023-07-31T04:10:38;26.20;99.90
23347;DHT22;36852;45.466;11.066;2023-07-31T04:13:09;26.20;99.90
23347;DHT22;36852;45.466;11.066;2023-07-31T04:15:37;26.30;99.90
23347;DHT22;36852;45.466;11.066;2023-07-31T04:18:05;26.30;99.90
23347;DHT22;36852;45.466;11.066;2023-07-31T04:20:35;26.20;99.90
23347;DHT22;36852;45.466;11.066;2023-07-31T04:23:02;26.20;99.90
23347;DHT22;36852;45.466;11.066;2023-07-31T04:25:30;26.20;99.90
23347;DHT22;36852;45.466;11.066;2023-07-31T04:27:58;26.20;99.90
23347;DHT22;36852;45.466;11.066;2023-07-31T04:30:30;26.20;99.90
23347;DHT22;36852;45.466;11.066;2023-07-31T04:32:58;26.30;99.90
23347;DHT22;36852;45.466;11.066;2023-07-31T04:35:33;26.20;99.90
23347;DHT22;36852;45.466;11.066;2023-07-31T04:38:02;26.20;99.90
23347;DHT22;36852;45.466;11.066;2023-07-31T04:40:29;26.20;99.90
23347;DHT22;36852;45.466;11.066;2023-07-31T04:42:59;26.20;99.90
23347;DHT22;36852;45.466;11.066;2023-07-31T04:45:30;26.20;99.90
23347;DHT22;36852;45.466;11.066;2023-07-31T04:47:59;26.20;99.90
23347;DHT22;36852;45.466;11.066;2023-07-31T04:50:28;26.20;99.90
23347;DHT22;36852;45.466;11.066;2023-07-31T04:52:57;26.20;99.90
23347;DHT22;36852;45.466;11.066;2023-07-31T04:55:26;26.20;99.90
23347;DHT22;36852;45.466;11.066;2023-07-31T04:57:54;26.30;99.90
23347;DHT22;36852;45.466;11.066;2023-07-31T05:00:22;26.20;99.90
23347;DHT22;36852;45.466;11.066;2023-07-31T05:02:50;26.30;99.90
23347;DHT22;36852;45.466;11.066;2023-07-31T05:05:21;26.30;99.90
23347;DHT22;36852;45.466;11.066;2023-07-31T05:07:49;26.30;99.90
23347;DHT22;36852;45.466;11.066;2023-07-31T05:10:17;26.40;99.90
23347;DHT22;36852;45.466;11.066;2023-07-31T05:12:45;26.40;99.90
23347;DHT22;36852;45.466;11.066;2023-07-31T05:15:14;26.40;99.90
23347;DHT22;36852;45.466;11.066;2023-07-31T05:17:42;26.40;99.90
23347;DHT22;36852;45.466;11.066;2023-07-31T05:20:14;26.40;99.90
23347;DHT22;36852;45.466;11.066;2023-07-31T05:22:45;26.50;99.90
23347;DHT22;36852;45.466;11.066;2023-07-31T05:25:13;26.50;99.90
23347;DHT22;36852;45.466;11.066;2023-07-31T05:27:41;26.50;99.90
23347;DHT22;36852;45.466;11.066;2023-07-31T05:30:10;26.60;99.90
23347;DHT22;36852;45.466;11.066;2023-07-31T05:32:38;26.60;99.90
23347;DHT22;36852;45.466;11.066;2023-07-31T05:35:06;26.60;99.90
23347;DHT22;36852;45.466;11.066;2023-07-31T05:37:34;26.70;99.90
23347;DHT22;36852;45.466;11.066;2023-07-31T05:40:04;26.70;99.90
23347;DHT22;36852;45.466;11.066;2023-07-31T05:42:32;26.70;99.90
23347;DHT22;36852;45.466;11.066;2023-07-31T05:45:00;26.70;99.90
23347;DHT22;36852;45.466;11.066;2023-07-31T05:47:28;26.80;99.90
23347;DHT22;36852;45.466;11.066;2023-07-31T05:49:56;26.80;99.90
23347;DHT22;36852;45.466;11.066;2023-07-31T05:52:24;26.80;99.90
23347;DHT22;36852;45.466;11.066;2023-07-31T05:54:53;26.80;99.90
23347;DHT22;36852;45.466;11.066;2023-07-31T05:57:21;26.90;99.90
23347;DHT22;36852;45.466;11.066;2023-07-31T05:59:49;26.90;99.90
23347;DHT22;36852;45.466;11.066;2023-07-31T06:02:17;26.90;99.90
23347;DHT22;36852;45.466;11.066;2023-07-31T06:04:46;26.90;99.90
23347;DHT22;36852;45.466;11.066;2023-07-31T06:07:23;27.00;99.90
23347;DHT22;36852;45.466;11.066;2023-07-31T06:09:51;27.00;99.90
23347;DHT22;36852;45.466;11.066;2023-07-31T06:12:20;27.00;99.90
23347;DHT22;36852;45.466;11.066;2023-07-31T06:14:47;27.10;99.90
23347;DHT22;36852;45.466;11.066;2023-07-31T06:17:16;27.10;99.90
23347;DHT22;36852;45.466;11.066;2023-07-31T06:19:43;27.10;99.90
23347;DHT22;36852;45.466;11.066;2023-07-31T06:22:14;27.10;99.90
23347;DHT22;36852;45.466;11.066;2023-07-31T06:24:42;27.20;99.90
23347;DHT22;36852;45.466;11.066;2023-07-31T06:27:09;27.20;99.90
23347;DHT22;36852;45.466;11.066;2023-07-31T06:29:37;27.20;99.90
23347;DHT22;36852;45.466;11.066;2023-07-31T06:32:06;27.30;99.90
23347;DHT22;36852;45.466;11.066;2023-07-31T06:34:33;27.30;99.90
23347;DHT22;36852;45.466;11.066;2023-07-31T06:37:02;27.40;99.90
23347;DHT22;36852;45.466;11.066;2023-07-31T06:39:31;27.40;99.90
23347;DHT22;36852;45.466;11.066;2023-07-31T06:42:02;27.40;99.90
23347;DHT22;36852;45.466;11.066;2023-07-31T06:44:29;27.40;99.90
23347;DHT22;36852;45.466;11.066;2023-07-31T06:46:57;27.40;99.90
23347;DHT22;36852;45.466;11.066;2023-07-31T06:49:28;27.40;99.90
23347;DHT22;36852;45.466;11.066;2023-07-31T06:51:56;27.40;99.90
23347;DHT22;36852;45.466;11.066;2023-07-31T06:54:24;27.50;99.90
23347;DHT22;36852;45.466;11.066;2023-07-31T06:56:52;27.40;99.90
23347;DHT22;36852;45.466;11.066;2023-07-31T06:59:20;27.40;99.90
23347;DHT22;36852;45.466;11.066;2023-07-31T07:01:48;27.40;99.90
23347;DHT22;36852;45.466;11.066;2023-07-31T07:04:16;27.40;99.90
23347;DHT22;36852;45.466;11.066;2023-07-31T07:06:43;27.40;99.90
23347;DHT22;36852;45.466;11.066;2023-07-31T07:09:12;27.40;99.90
23347;DHT22;36852;45.466;11.066;2023-07-31T07:11:40;27.40;99.90
23347;DHT22;36852;45.466;11.066;2023-07-31T07:14:08;27.40;99.90
23347;DHT22;36852;45.466;11.066;2023-07-31T07:16:36;27.40;99.90
23347;DHT22;36852;45.466;11.066;2023-07-31T07:19:05;27.50;99.90
23347;DHT22;36852;45.466;11.066;2023-07-31T07:21:34;27.60;99.90
23347;DHT22;36852;45.466;11.066;2023-07-31T07:24:02;27.60;99.90
23347;DHT22;36852;45.466;11.066;2023-07-31T07:26:30;27.70;99.90
23347;DHT22;36852;45.466;11.066;2023-07-31T07:28:58;27.70;99.90
23347;DHT22;36852;45.466;11.066;2023-07-31T07:31:28;27.60;99.90
23347;DHT22;36852;45.466;11.066;2023-07-31T07:33:56;27.60;99.90
23347;DHT22;36852;45.466;11.066;2023-07-31T07:36:24;27.60;99.90
23347;DHT22;36852;45.466;11.066;2023-07-31T07:38:52;27.60;99.90
23347;DHT22;36852;45.466;11.066;2023-07-31T07:41:20;27.60;99.90
23347;DHT22;36852;45.466;11.066;2023-07-31T07:43:48;27.60;99.90
23347;DHT22;36852;45.466;11.066;2023-07-31T07:46:16;27.70;99.90
23347;DHT22;36852;45.466;11.066;2023-07-31T07:48:44;27.80;99.90
23347;DHT22;36852;45.466;11.066;2023-07-31T07:51:15;27.80;99.90
23347;DHT22;36852;45.466;11.066;2023-07-31T07:53:44;27.80;99.90
23347;DHT22;36852;45.466;11.066;2023-07-31T07:56:12;27.80;99.90
23347;DHT22;36852;45.466;11.066;2023-07-31T07:58:40;27.90;99.90
23347;DHT22;36852;45.466;11.066;2023-07-31T08:01:08;27.90;99.90
23347;DHT22;36852;45.466;11.066;2023-07-31T08:03:36;27.90;99.90
23347;DHT22;36852;45.466;11.066;2023-07-31T08:06:04;28.00;99.90
23347;DHT22;36852;45.466;11.066;2023-07-31T08:08:32;28.10;99.90
23347;DHT22;36852;45.466;11.066;2023-07-31T08:11:00;28.10;99.90
23347;DHT22;36852;45.466;11.066;2023-07-31T08:13:28;28.10;99.90
23347;DHT22;36852;45.466;11.066;2023-07-31T08:15:56;28.10;99.90
23347;DHT22;36852;45.466;11.066;2023-07-31T08:18:25;28.10;99.90
23347;DHT22;36852;45.466;11.066;2023-07-31T08:20:53;28.10;99.90
23347;DHT22;36852;45.466;11.066;2023-07-31T08:23:21;28.20;99.90
23347;DHT22;36852;45.466;11.066;2023-07-31T08:25:50;28.20;99.90
23347;DHT22;36852;45.466;11.066;2023-07-31T08:28:18;28.20;99.90
23347;DHT22;36852;45.466;11.066;2023-07-31T08:30:45;28.30;99.90
23347;DHT22;36852;45.466;11.066;2023-07-31T08:33:13;28.30;99.90
23347;DHT22;36852;45.466;11.066;2023-07-31T08:35:41;28.30;99.90
23347;DHT22;36852;45.466;11.066;2023-07-31T08:38:10;28.30;99.90
23347;DHT22;36852;45.466;11.066;2023-07-31T08:40:37;28.40;99.90
23347;DHT22;36852;45.466;11.066;2023-07-31T08:43:07;28.40;99.90
23347;DHT22;36852;45.466;11.066;2023-07-31T08:45:36;28.50;99.90
23347;DHT22;36852;45.466;11.066;2023-07-31T08:48:05;28.50;99.90
23347;DHT22;36852;45.466;11.066;2023-07-31T08:50:34;28.60;99.90
23347;DHT22;36852;45.466;11.066;2023-07-31T08:53:03;28.60;99.90
23347;DHT22;36852;45.466;11.066;2023-07-31T08:55:32;28.70;99.90
23347;DHT22;36852;45.466;11.066;2023-07-31T08:58:02;28.70;99.90
23347;DHT22;36852;45.466;11.066;2023-07-31T09:00:32;28.70;99.90
23347;DHT22;36852;45.466;11.066;2023-07-31T09:03:03;28.70;99.90
23347;DHT22;36852;45.466;11.066;2023-07-31T09:05:32;28.70;99.90
23347;DHT22;36852;45.466;11.066;2023-07-31T09:08:05;28.80;99.90
23347;DHT22;36852;45.466;11.066;2023-07-31T09:10:32;28.80;99.90
23347;DHT22;36852;45.466;11.066;2023-07-31T09:13:01;28.90;99.90
23347;DHT22;36852;45.466;11.066;2023-07-31T09:15:30;28.90;99.90
23347;DHT22;36852;45.466;11.066;2023-07-31T09:18:00;28.90;99.90
23347;DHT22;36852;45.466;11.066;2023-07-31T09:20:29;28.90;99.90
23347;DHT22;36852;45.466;11.066;2023-07-31T09:23:09;29.00;99.90
23347;DHT22;36852;45.466;11.066;2023-07-31T09:25:35;29.00;99.90
23347;DHT22;36852;45.466;11.066;2023-07-31T09:28:06;29.00;99.90
23347;DHT22;36852;45.466;11.066;2023-07-31T09:30:46;29.10;99.90
23347;DHT22;36852;45.466;11.066;2023-07-31T09:33:19;29.00;99.90
23347;DHT22;36852;45.466;11.066;2023-07-31T09:35:48;29.10;99.90
23347;DHT22;36852;45.466;11.066;2023-07-31T09:38:16;29.10;99.90
23347;DHT22;36852;45.466;11.066;2023-07-31T09:40:46;29.10;99.90
23347;DHT22;36852;45.466;11.066;2023-07-31T09:43:21;29.10;99.90
23347;DHT22;36852;45.466;11.066;2023-07-31T09:45:54;29.20;99.90
23347;DHT22;36852;45.466;11.066;2023-07-31T09:48:23;29.20;99.90
23347;DHT22;36852;45.466;11.066;2023-07-31T09:50:53;29.20;99.90
23347;DHT22;36852;45.466;11.066;2023-07-31T09:53:29;29.30;99.90
23347;DHT22;36852;45.466;11.066;2023-07-31T09:55:58;29.30;99.90
23347;DHT22;36852;45.466;11.066;2023-07-31T09:58:29;29.30;99.90
23347;DHT22;36852;45.466;11.066;2023-07-31T10:01:01;29.30;99.90
23347;DHT22;36852;45.466;11.066;2023-07-31T10:03:31;29.30;99.90
23347;DHT22;36852;45.466;11.066;2023-07-31T10:06:00;29.40;99.90
23347;DHT22;36852;45.466;11.066;2023-07-31T10:08:30;29.30;99.90
23347;DHT22;36852;45.466;11.066;2023-07-31T10:10:59;29.40;99.90
23347;DHT22;36852;45.466;11.066;2023-07-31T10:13:30;29.40;99.90
23347;DHT22;36852;45.466;11.066;2023-07-31T10:16:01;29.40;99.90
23347;DHT22;36852;45.466;11.066;2023-07-31T10:18:30;29.40;99.90
23347;DHT22;36852;45.466;11.066;2023-07-31T10:20:58;29.40;99.90
23347;DHT22;36852;45.466;11.066;2023-07-31T10:23:30;29.50;99.90
23347;DHT22;36852;45.466;11.066;2023-07-31T10:26:01;29.50;99.90
23347;DHT22;36852;45.466;11.066;2023-07-31T10:28:32;29.50;99.90
23347;DHT22;36852;45.466;11.066;2023-07-31T10:31:01;29.60;99.90
23347;DHT22;36852;45.466;11.066;2023-07-31T10:33:30;29.60;99.90
23347;DHT22;36852;45.466;11.066;2023-07-31T10:36:19;29.60;99.90
23347;DHT22;36852;45.466;11.066;2023-07-31T10:38:51;29.60;99.90
23347;DHT22;36852;45.466;11.066;2023-07-31T10:41:19;29.60;99.90
23347;DHT22;36852;45.466;11.066;2023-07-31T10:43:54;29.70;99.90
23347;DHT22;36852;45.466;11.066;2023-07-31T10:46:22;29.70;99.90
23347;DHT22;36852;45.466;11.066;2023-07-31T10:48:59;29.70;99.90
23347;DHT22;36852;45.466;11.066;2023-07-31T10:51:35;29.70;99.90
23347;DHT22;36852;45.466;11.066;2023-07-31T10:54:13;29.70;99.90
23347;DHT22;36852;45.466;11.066;2023-07-31T10:56:46;29.80;99.90
23347;DHT22;36852;45.466;11.066;2023-07-31T10:59:15;29.80;99.90
23347;DHT22;36852;45.466;11.066;2023-07-31T11:01:53;29.80;99.90
23347;DHT22;36852;45.466;11.066;2023-07-31T11:04:27;29.80;99.90
23347;DHT22;36852;45.466;11.066;2023-07-31T11:06:57;29.80;99.90
23347;DHT22;36852;45.466;11.066;2023-07-31T11:09:30;29.80;99.90
23347;DHT22;36852;45.466;11.066;2023-07-31T11:11:59;29.80;99.90
23347;DHT22;36852;45.466;11.066;2023-07-31T11:14:27;29.90;99.90
23347;DHT22;36852;45.466;11.066;2023-07-31T11:16:55;29.90;99.90
23347;DHT22;36852;45.466;11.066;2023-07-31T11:19:25;30.00;99.90
23347;DHT22;36852;45.466;11.066;2023-07-31T11:21:53;30.00;99.90
23347;DHT22;36852;45.466;11.066;2023-07-31T11:24:22;30.00;99.90
23347;DHT22;36852;45.466;11.066;2023-07-31T11:26:51;30.00;99.90
23347;DHT22;36852;45.466;11.066;2023-07-31T11:29:20;30.00;99.90
23347;DHT22;36852;45.466;11.066;2023-07-31T11:31:48;30.10;99.90
23347;DHT22;36852;45.466;11.066;2023-07-31T11:34:16;30.10;99.90
23347;DHT22;36852;45.466;11.066;2023-07-31T11:36:54;30.10;99.90
23347;DHT22;36852;45.466;11.066;2023-07-31T11:39:23;30.10;99.90
23347;DHT22;36852;45.466;11.066;2023-07-31T11:41:51;30.20;99.90
23347;DHT22;36852;45.466;11.066;2023-07-31T11:44:19;30.20;99.90
23347;DHT22;36852;45.466;11.066;2023-07-31T11:46:50;30.30;99.90
23347;DHT22;36852;45.466;11.066;2023-07-31T11:49:17;30.30;99.90
23347;DHT22;36852;45.466;11.066;2023-07-31T11:51:46;30.30;99.90
23347;DHT22;36852;45.466;11.066;2023-07-31T11:54:13;30.30;99.90
23347;DHT22;36852;45.466;11.066;2023-07-31T11:56:43;30.30;99.90
23347;DHT22;36852;45.466;11.066;2023-07-31T11:59:11;30.40;99.90
23347;DHT22;36852;45.466;11.066;2023-07-31T12:01:40;30.40;99.90
23347;DHT22;36852;45.466;11.066;2023-07-31T12:04:09;30.40;99.90
23347;DHT22;36852;45.466;11.066;2023-07-31T12:06:37;30.50;99.90
23347;DHT22;36852;45.466;11.066;2023-07-31T12:09:06;30.50;99.90
23347;DHT22;36852;45.466;11.066;2023-07-31T12:11:44;30.50;99.90
23347;DHT22;36852;45.466;11.066;2023-07-31T12:14:27;30.60;99.90
23347;DHT22;36852;45.466;11.066;2023-07-31T12:17:04;30.60;99.90
23347;DHT22;36852;45.466;11.066;2023-07-31T12:19:30;30.60;99.90
23347;DHT22;36852;45.466;11.066;2023-07-31T12:21:59;30.70;99.90
23347;DHT22;36852;45.466;11.066;2023-07-31T12:24:29;30.70;99.90
23347;DHT22;36852;45.466;11.066;2023-07-31T12:26:58;30.80;99.90
23347;DHT22;36852;45.466;11.066;2023-07-31T12:29:37;30.80;99.90
23347;DHT22;36852;45.466;11.066;2023-07-31T12:32:21;30.80;99.90
23347;DHT22;36852;45.466;11.066;2023-07-31T12:34:51;30.80;99.90
23347;DHT22;36852;45.466;11.066;2023-07-31T12:37:20;30.90;99.90
23347;DHT22;36852;45.466;11.066;2023-07-31T12:39:49;30.90;99.90
23347;DHT22;36852;45.466;11.066;2023-07-31T12:42:17;30.90;99.90
23347;DHT22;36852;45.466;11.066;2023-07-31T12:44:46;30.90;99.90
23347;DHT22;36852;45.466;11.066;2023-07-31T12:47:15;30.90;99.90
23347;DHT22;36852;45.466;11.066;2023-07-31T12:49:42;31.00;99.90
23347;DHT22;36852;45.466;11.066;2023-07-31T12:52:10;31.00;99.90
23347;DHT22;36852;45.466;11.066;2023-07-31T12:54:41;31.10;99.90
23347;DHT22;36852;45.466;11.066;2023-07-31T12:57:09;31.10;99.90
23347;DHT22;36852;45.466;11.066;2023-07-31T12:59:38;31.20;99.90
23347;DHT22;36852;45.466;11.066;2023-07-31T13:02:06;31.30;99.90
23347;DHT22;36852;45.466;11.066;2023-07-31T13:04:35;31.30;99.90
23347;DHT22;36852;45.466;11.066;2023-07-31T13:07:03;31.40;99.90
23347;DHT22;36852;45.466;11.066;2023-07-31T13:09:34;31.50;99.90
23347;DHT22;36852;45.466;11.066;2023-07-31T13:12:03;31.50;99.90
23347;DHT22;36852;45.466;11.066;2023-07-31T13:14:31;31.60;99.90
23347;DHT22;36852;45.466;11.066;2023-07-31T13:17:00;31.70;99.90
23347;DHT22;36852;45.466;11.066;2023-07-31T13:19:28;31.70;99.90
23347;DHT22;36852;45.466;11.066;2023-07-31T13:21:56;31.90;99.90
23347;DHT22;36852;45.466;11.066;2023-07-31T13:24:24;31.90;99.50
23347;DHT22;36852;45.466;11.066;2023-07-31T13:26:53;32.00;99.70
23347;DHT22;36852;45.466;11.066;2023-07-31T13:29:22;32.00;98.20
23347;DHT22;36852;45.466;11.066;2023-07-31T13:31:52;32.00;98.30
23347;DHT22;36852;45.466;11.066;2023-07-31T13:34:20;32.10;98.70
23347;DHT22;36852;45.466;11.066;2023-07-31T13:36:48;32.20;99.60
23347;DHT22;36852;45.466;11.066;2023-07-31T13:39:16;32.20;98.30
23347;DHT22;36852;45.466;11.066;2023-07-31T13:41:47;32.20;98.40
23347;DHT22;36852;45.466;11.066;2023-07-31T13:44:16;32.30;98.00
23347;DHT22;36852;45.466;11.066;2023-07-31T13:46:44;32.40;99.10
23347;DHT22;36852;45.466;11.066;2023-07-31T13:49:15;32.40;99.40
23347;DHT22;36852;45.466;11.066;2023-07-31T13:51:44;32.50;99.10
23347;DHT22;36852;45.466;11.066;2023-07-31T13:54:12;32.60;98.10
23347;DHT22;36852;45.466;11.066;2023-07-31T13:56:43;32.70;98.10
23347;DHT22;36852;45.466;11.066;2023-07-31T13:59:12;32.80;97.40
23347;DHT22;36852;45.466;11.066;2023-07-31T14:01:43;32.90;97.70
23347;DHT22;36852;45.466;11.066;2023-07-31T14:04:11;33.00;97.80
23347;DHT22;36852;45.466;11.066;2023-07-31T14:06:40;33.10;97.10
23347;DHT22;36852;45.466;11.066;2023-07-31T14:09:09;33.20;97.00
23347;DHT22;36852;45.466;11.066;2023-07-31T14:11:37;33.20;96.60
23347;DHT22;36852;45.466;11.066;2023-07-31T14:14:08;33.30;96.10
23347;DHT22;36852;45.466;11.066;2023-07-31T14:16:36;33.40;95.30
23347;DHT22;36852;45.466;11.066;2023-07-31T14:19:06;33.40;94.50
23347;DHT22;36852;45.466;11.066;2023-07-31T14:21:38;33.50;94.50
23347;DHT22;36852;45.466;11.066;2023-07-31T14:24:06;33.50;95.00
23347;DHT22;36852;45.466;11.066;2023-07-31T14:26:35;33.50;94.70
23347;DHT22;36852;45.466;11.066;2023-07-31T14:29:03;33.60;95.50
23347;DHT22;36852;45.466;11.066;2023-07-31T14:31:31;33.80;95.20
23347;DHT22;36852;45.466;11.066;2023-07-31T14:33:59;33.80;94.60
23347;DHT22;36852;45.466;11.066;2023-07-31T14:36:27;33.90;94.70
23347;DHT22;36852;45.466;11.066;2023-07-31T14:38:55;34.00;94.00
23347;DHT22;36852;45.466;11.066;2023-07-31T14:41:23;34.00;93.70
23347;DHT22;36852;45.466;11.066;2023-07-31T14:43:51;34.00;93.20
23347;DHT22;36852;45.466;11.066;2023-07-31T14:46:20;34.10;92.30
23347;DHT22;36852;45.466;11.066;2023-07-31T14:48:48;34.10;92.90
23347;DHT22;36852;45.466;11.066;2023-07-31T14:51:17;34.10;92.50
23347;DHT22;36852;45.466;11.066;2023-07-31T14:53:45;34.10;92.30
23347;DHT22;36852;45.466;11.066;2023-07-31T14:56:14;34.20;91.50
23347;DHT22;36852;45.466;11.066;2023-07-31T14:58:42;34.20;92.50
23347;DHT22;36852;45.466;11.066;2023-07-31T15:01:10;34.30;92.60
23347;DHT22;36852;45.466;11.066;2023-07-31T15:03:38;34.50;92.50
23347;DHT22;36852;45.466;11.066;2023-07-31T15:06:08;34.60;92.00
23347;DHT22;36852;45.466;11.066;2023-07-31T15:08:36;34.60;92.20
23347;DHT22;36852;45.466;11.066;2023-07-31T15:11:05;34.70;91.40
23347;DHT22;36852;45.466;11.066;2023-07-31T15:13:33;34.80;90.80
23347;DHT22;36852;45.466;11.066;2023-07-31T15:16:01;34.80;90.60
23347;DHT22;36852;45.466;11.066;2023-07-31T15:18:29;34.70;88.90
23347;DHT22;36852;45.466;11.066;2023-07-31T15:20:58;34.70;89.40
23347;DHT22;36852;45.466;11.066;2023-07-31T15:23:26;34.70;90.20
23347;DHT22;36852;45.466;11.066;2023-07-31T15:25:57;34.70;90.40
23347;DHT22;36852;45.466;11.066;2023-07-31T15:28:26;34.80;89.00
23347;DHT22;36852;45.466;11.066;2023-07-31T15:30:57;34.90;87.90
23347;DHT22;36852;45.466;11.066;2023-07-31T15:33:25;34.90;89.60
23347;DHT22;36852;45.466;11.066;2023-07-31T15:35:52;35.00;89.90